• Join FlightAware (Why Join?)
  • Login
  • US Flag 
09:08AM EDT


 

Airport Tracker/Info


-or-


 

Live Flight TrackerFlight Track Log ✈ FLG3432 ✈ 12-May-2013 ✈ KALB - KMSP

Flight Track Log - Related Links

Times and Time Zones

All times are in EDT time to prevent confusion due to time zone crossing. See the FLG3432 flight status page for this flight to view local times or setup timezone preferences in your user account.

Time Position Orientation Groundspeed Altitude Reporting Facility
EDT Latitude Longitude Course Direction KTS MPH feet Rate Location/Type
06:34AM 42.7714 -73.8092 284° West 168 193 1,400  Level Boston Center
06:36AM 42.8253 -73.8328 342° North 204 235 3,300 1,800 Climbing Boston Center
06:37AM 42.8131 -74.2017 282° West  Level FlightAware Approximate
06:37AM 42.8936 -73.8856 331° Northwest 242 278 5,700  Level Boston Center
06:38AM 42.8344 -74.3394 283° West  Level FlightAware Approximate
06:38AM 42.9658 -73.9411 331° Northwest 266 306 8,600  Level Boston Center
06:39AM 42.8573 -74.4768 283° West  Level FlightAware Approximate
06:39AM 43.0297 -73.9881 332° Northwest 276 318 10,800  Level Boston Center
06:40AM 42.8909 -74.6080 284° West  Level FlightAware Approximate
06:40AM 43.0825 -74.0861 306° West 304 350 12,200  Level Boston Center
06:41AM 43.0872 -74.1969 273° West 305 351 14,200 1,980 Climbing Boston Center
06:42AM 43.0933 -74.3336 274° West 331 381 16,200 1,860 Climbing Boston Center
06:43AM 43.0997 -74.4506 274° West 341 392 18,000 2,220 Climbing Boston Center
06:44AM 43.1053 -74.5958 273° West 346 398 20,700 2,100 Climbing Boston Center
06:45AM 43.1111 -74.7239 274° West 346 398 22,200 1,320 Climbing Boston Center
06:46AM 43.1167 -74.8606 273° West 346 398 23,400 1,080 Climbing Boston Center
06:47AM 43.1203 -74.9831 272° West 351 404 24,400 1,200 Climbing Boston Center
06:48AM 43.1253 -75.1286 273° West 363 418 25,800 1,260 Climbing Boston Center
06:49AM 43.1322 -75.2739 274° West 375 432 27,000 1,140 Climbing Boston Center
06:50AM 43.1367 -75.4222 272° West 385 443 28,100 900 Climbing Boston Center
06:51AM 43.1411 -75.5731 272° West 396 456 28,900 1,200 Climbing Boston Center
06:52AM 43.1472 -75.7214 273° West 396 456 30,500 1,260 Climbing Boston Center
06:53AM 43.1511 -75.8697 272° West 396 456 31,500 1,200 Climbing Boston Center
06:54AM 43.1569 -76.0211 273° West 396 456 32,900 1,260 Climbing Boston Center
06:55AM 43.1628 -76.1636 273° West 396 456 34,100 960 Climbing Boston Center
06:57AM 43.1408 -76.4486 264° West 384 442 35,800 600 Climbing Cleveland Center
06:58AM 43.1289 -76.5861 263° West 379 436 36,000 60 Climbing Cleveland Center
06:59AM 43.1150 -76.7292 262° West 379 436 36,000  Level Cleveland Center
07:00AM 43.1014 -76.8808 263° West 379 436 36,000  Level Cleveland Center
07:01AM 43.0872 -77.0294 263° West 396 456 36,000  Level Cleveland Center
07:02AM 43.0750 -77.1781 264° West 402 463 36,000  Level Cleveland Center
07:03AM 43.0606 -77.3267 262° West 402 463 36,000  Level Cleveland Center
07:04AM 43.0456 -77.4694 262° West 397 457 36,000  Level Cleveland Center
07:05AM 43.0344 -77.6008 263° West 392 451 36,000  Level Cleveland Center
07:06AM 43.0214 -77.7461 263° West 392 451 36,000  Level Cleveland Center
07:07AM 43.0061 -77.8917 262° West 392 451 36,000  Level Cleveland Center
07:08AM 42.9928 -78.0372 263° West 392 451 36,000  Level Cleveland Center
07:09AM 42.9753 -78.1853 261° West 392 451 36,000  Level Cleveland Center
07:10AM 42.9614 -78.3306 263° West 392 451 36,000  Level Cleveland Center
07:11AM 42.9475 -78.4731 262° West 387 445 36,000  Level Cleveland Center
07:12AM 42.9353 -78.6153 263° West 387 445 36,000  Level Cleveland Center
07:13AM 42.9692 -78.7644 287° West 387 445 36,000  Level Cleveland Center
07:14AM 43.0131 -78.9108 292° West 397 457 36,000  Level Cleveland Center
07:14AM 43.0167 -78.9500 277° West 420 483 36,000  Level Toronto Center
07:15AM 43.0500 -79.0833 289° West 420 483 36,000  Level Toronto Center
07:16AM 43.0833 -79.2500 285° West 420 483 36,000  Level Toronto Center
07:17AM 43.1167 -79.4000 287° West 420 483 36,000  Level Toronto Center
07:18AM 43.1500 -79.5500 287° West 420 483 36,000  Level Toronto Center
07:19AM 43.1833 -79.7000 287° West 420 483 36,000  Level Toronto Center
07:20AM 43.2000 -79.8667 278° West 420 483 36,000  Level Toronto Center
07:21AM 43.2333 -80.0167 287° West 420 483 36,000  Level Toronto Center
07:22AM 43.2667 -80.1667 287° West 410 472 36,000  Level Toronto Center
07:23AM 43.3000 -80.3167 287° West 420 483 36,000  Level Toronto Center
07:24AM 43.3333 -80.4833 285° West 420 483 36,000  Level Toronto Center
07:25AM 43.3667 -80.6167 289° West 420 483 36,000  Level Toronto Center
07:26AM 43.4000 -80.7833 285° West 420 483 36,000  Level Toronto Center
07:27AM 43.4000 -80.9333 270° West 420 483 36,000  Level Toronto Center
07:28AM 43.4333 -81.0833 287° West 410 472 36,000  Level Toronto Center
07:29AM 43.4667 -81.2333 287° West 410 472 36,000  Level Toronto Center
07:30AM 43.5000 -81.3833 287° West 410 472 36,000  Level Toronto Center
07:31AM 43.5333 -81.5500 285° West 410 472 36,000  Level Toronto Center
07:32AM 43.5667 -81.7000 287° West 410 472 36,000  Level Toronto Center
07:33AM 43.5833 -81.8500 279° West 410 472 36,000  Level Toronto Center
07:34AM 43.6000 -82.0000 279° West 410 472 36,000  Level Toronto Center
07:35AM 43.6333 -82.1667 286° West 420 483 36,000  Level Toronto Center
07:36AM 43.6667 -82.3000 289° West 420 483 36,000  Level Toronto Center
07:37AM 43.7000 -82.4667 286° West 420 483 36,000  Level Toronto Center
07:38AM 43.7333 -82.6333 286° West 430 495 36,000  Level Toronto Center
07:39AM 43.7500 -82.8000 278° West 430 495 36,000  Level Toronto Center
07:40AM 43.7833 -82.9667 286° West 430 495 36,000  Level Toronto Center
07:41AM 43.8167 -83.1167 287° West 430 495 36,000  Level Toronto Center
07:42AM 43.8436 -83.2636 284° West 429 494 36,000  Level Minneapolis Center
07:43AM 43.8692 -83.4239 283° West 428 493 36,000  Level Minneapolis Center
07:44AM 43.8978 -83.5861 284° West 430 495 36,000  Level Minneapolis Center
07:45AM 43.9258 -83.7492 283° West 432 497 36,000  Level Minneapolis Center
07:46AM 43.9486 -83.9072 281° West 428 493 36,000  Level Minneapolis Center
07:47AM 43.9744 -84.0703 282° West 430 495 36,000  Level Minneapolis Center
07:48AM 44.0017 -84.2297 283° West 427 491 36,000  Level Minneapolis Center
07:49AM 44.0267 -84.3914 282° West 428 493 36,000  Level Minneapolis Center
07:50AM 44.0508 -84.5528 282° West 428 493 36,000  Level Minneapolis Center
07:51AM 44.0758 -84.7125 282° West 426 490 36,000  Level Minneapolis Center
07:52AM 44.1006 -84.8744 282° West 427 491 36,000  Level Minneapolis Center
07:53AM 44.1253 -85.0350 282° West 426 490 36,000  Level Minneapolis Center
07:54AM 44.1503 -85.1958 282° West 425 489 36,000  Level Minneapolis Center
07:55AM 44.1744 -85.3575 282° West 426 490 36,000  Level Minneapolis Center
07:56AM 44.1981 -85.5189 282° West 426 490 36,000  Level Minneapolis Center
07:57AM 44.2214 -85.6800 281° West 425 489 36,000  Level Minneapolis Center
07:58AM 44.2492 -85.8744 281° West 424 488 36,000  Level Minneapolis Center
07:59AM 44.2733 -86.0372 282° West 426 490 36,000  Level Minneapolis Center
08:00AM 44.2908 -86.1678 281° West 425 489 36,000  Level Minneapolis Center
08:01AM 44.3142 -86.3311 281° West 428 493 36,000  Level Minneapolis Center
08:02AM 44.3364 -86.4953 281° West 429 494 36,000  Level Minneapolis Center
08:03AM 44.3642 -86.6936 281° West 432 497 36,000  Level Minneapolis Center
08:04AM 44.3850 -86.8583 280° West 429 494 36,000  Level Minneapolis Center
08:05AM 44.4072 -87.0239 281° West 432 497 36,000  Level Minneapolis Center
08:06AM 44.4294 -87.1908 281° West 435 501 36,000  Level Minneapolis Center
08:07AM 44.4508 -87.3583 280° West 436 502 36,000  Level Minneapolis Center
08:08AM 44.4725 -87.5244 280° West 435 501 36,000  Level Minneapolis Center
08:09AM 44.4936 -87.6908 280° West 433 498 36,000  Level Minneapolis Center
08:10AM 44.5144 -87.8556 280° West 431 496 36,000  Level Minneapolis Center
08:11AM 44.5339 -88.0169 280° West 429 494 36,000  Level Minneapolis Center
08:12AM 44.5544 -88.1853 280° West 437 503 36,000 -300 Level Minneapolis Center
08:13AM 44.5736 -88.3444 280° West 420 483 35,400 -840 Descending Minneapolis Center
08:14AM 44.5914 -88.5008 279° West 409 471 34,400 -720 Descending Minneapolis Center
08:15AM 44.6103 -88.6567 280° West 406 467 34,000 -240 Descending Minneapolis Center
08:16AM 44.6278 -88.8144 279° West 408 470 34,000  Level Minneapolis Center
08:17AM 44.6461 -88.9742 279° West 413 475 34,000  Level Minneapolis Center
08:18AM 44.6636 -89.1378 279° West 422 486 34,000 -120 Level Minneapolis Center
08:19AM 44.6817 -89.3058 279° West 432 497 33,800 -600 Descending Minneapolis Center
08:20AM 44.7008 -89.4756 279° West 440 506 32,800 -900 Descending Minneapolis Center
08:21AM 44.7178 -89.6394 278° West 428 493 32,000 -420 Descending Minneapolis Center
08:22AM 44.7369 -89.8222 278° West 409 471 32,000  Level Minneapolis Center
08:23AM 44.7553 -89.9892 279° West 424 488 32,000  Level Minneapolis Center
08:24AM 44.7708 -90.1511 278° West 422 486 32,000  Level Minneapolis Center
08:25AM 44.7911 -90.3100 280° West 413 475 32,000 -300 Level Minneapolis Center
08:26AM 44.8153 -90.4739 282° West 424 488 31,500 -780 Descending Minneapolis Center
08:27AM 44.8347 -90.6347 280° West 434 499 30,500 -1,260 Descending Minneapolis Center
08:28AM 44.8608 -90.8142 282° West 432 497 29,000 -1,680 Descending Minneapolis Center
08:29AM 44.8794 -90.9631 280° West 428 493 27,200 -1,920 Descending Minneapolis Center
08:30AM 44.9000 -91.1208 280° West 418 481 25,200 -1,980 Descending Minneapolis Center
08:31AM 44.9203 -91.2733 281° West 404 465 23,200 -1,980 Descending Minneapolis Center
08:32AM 44.9397 -91.4244 280° West 397 457 21,200 -1,920 Descending Minneapolis Center
08:33AM 44.9578 -91.5717 280° West 388 447 19,400 -1,860 Descending Minneapolis Center
08:34AM 44.9789 -91.7178 282° West 383 441 17,500 -2,160 Descending Minneapolis Center
08:35AM 44.9992 -91.8878 280° West 372 428 15,100 -2,220 Descending Minneapolis Center
08:36AM 45.0161 -92.0258 280° West 359 413 13,100 -1,680 Descending Minneapolis Center
08:37AM 45.0333 -92.1611 280° West 351 404 11,800 -1,080 Descending Minneapolis Center
08:38AM 45.0464 -92.2972 278° West 351 404 11,000 -600 Descending Minneapolis Center
08:39AM 45.0208 -92.4281 255° West 347 399 10,600 -660 Descending Minneapolis Center
08:40AM 44.9719 -92.5242 234° Southwest 301 346 9,700 -1,380 Descending Minneapolis Center
08:41AM 44.9281 -92.6131 235° Southwest 280 322 7,900 -1,320 Descending Minneapolis Center
08:42AM 44.8839 -92.7014 235° Southwest 276 318 7,100 -720 Descending Minneapolis Center
08:44AM 44.8417 -92.7861 235° Southwest 268 308 6,500 -840 Descending Minneapolis Center
08:45AM 44.8119 -92.8769 245° Southwest 253 291 5,500 -720 Descending Minneapolis Center
08:46AM 44.8069 -92.9597 265° West 209 241 5,100 -840 Descending Minneapolis Center
08:47AM 44.8125 -93.0219 277° West 167 192 3,900 -1,140 Descending Minneapolis Center
08:48AM 44.8353 -93.0875 296° West 157 181 2,800 -1,140 Descending Minneapolis Center